Quamba, Minnesota
Current Conditions -  °F | °C
As of 5:05 PM on Friday 19 Dec 2014 (Local Time) from KJMR Reporting Station
Overcast Overcast  
Wind Chill: 21°   Ceiling: 1200
Heat Index: 27°   Visibility: 10mi
Dew Point: 21°   Wind: 5mph
Humidity: 80%   Direction: 150°SSE
Pressure: 30.19"   Gusts: NA
Location:  45.9652°N, 93.2874°W
Report Text: KJMR 192305Z AUTO 15004KT 10SM OVC012 M03/M06 A3019 RMK AO2
Loading
Personal Weather Stations






























Interactive Weather Map New forecast layout! Learn more

10-Day Weather Forecast

Advertisements
Track Severe Weather on mobile